Time;durP1;ratioP1;P1;durP2;ratioP2;P2;SDS_P1;SDS_P2;PMS_P1;PMS_P2;Temp;Humidity;BMP_temperature;BMP_pressure;BME280_temperature;BME280_humidity;BME280_pressure;Samples;Min_cycle;Max_cycle;Signal;HPM_P1;HPM_P2
2021/03/14 00:00:18;;;;;;;4.97;1.42;;;;;;;;;;5025274;28;20128;-80
2021/03/14 00:02:44;;;;;;;2.70;0.60;;;;;;;;;;5026612;28;20037;-81
2021/03/14 00:05:10;;;;;;;2.13;0.65;;;;;;;;;;5028405;28;20042;-79
2021/03/14 00:07:37;;;;;;;1.30;0.60;;;;;;;;;;5027772;28;20095;-81
2021/03/14 00:10:04;;;;;;;2.00;0.68;;;;;;;;;;5022962;28;20037;-80
2021/03/14 00:12:30;;;;;;;2.08;0.60;;;;;;;;;;5023907;28;20160;-82
2021/03/14 00:14:56;;;;;;;1.45;0.60;;;;;;;;;;5027304;28;20128;-80
2021/03/14 00:17:23;;;;;;;2.08;0.70;;;;;;;;;;5024494;28;20478;-82
2021/03/14 00:19:49;;;;;;;4.47;0.70;;;;;;;;;;5019624;28;20038;-81
2021/03/14 00:22:15;;;;;;;3.72;0.80;;;;;;;;;;5025374;28;20057;-80
2021/03/14 00:24:41;;;;;;;2.85;0.98;;;;;;;;;;5027223;28;20042;-81
2021/03/14 00:27:07;;;;;;;2.25;0.70;;;;;;;;;;5024508;28;20095;-81
2021/03/14 00:29:33;;;;;;;1.05;0.52;;;;;;;;;;5022257;28;20038;-80
2021/03/14 00:32:01;;;;;;;1.05;0.40;;;;;;;;;;5019996;28;20045;-80
2021/03/14 00:34:28;;;;;;;1.42;0.60;;;;;;;;;;5016371;28;20064;-80
2021/03/14 00:36:54;;;;;;;1.75;0.70;;;;;;;;;;5021477;28;20045;-79
2021/03/14 00:39:20;;;;;;;2.70;0.55;;;;;;;;;;5021679;28;20042;-80
2021/03/14 00:41:46;;;;;;;2.35;0.80;;;;;;;;;;5022450;28;20103;-79
2021/03/14 00:44:12;;;;;;;1.55;0.73;;;;;;;;;;5022307;28;20390;-80
2021/03/14 00:46:38;;;;;;;4.35;0.90;;;;;;;;;;5025026;28;20046;-80
2021/03/14 00:49:04;;;;;;;3.33;0.70;;;;;;;;;;5023523;28;20046;-80
2021/03/14 00:51:31;;;;;;;1.40;0.60;;;;;;;;;;5025933;28;20041;-80
2021/03/14 00:53:58;;;;;;;1.38;0.63;;;;;;;;;;5020509;28;20041;-79
2021/03/14 00:56:25;;;;;;;1.15;0.40;;;;;;;;;;5026224;28;20132;-79
2021/03/14 00:58:50;;;;;;;1.98;0.68;;;;;;;;;;5021715;28;20042;-79
2021/03/14 01:01:17;;;;;;;1.42;0.50;;;;;;;;;;5024914;28;20187;-79
2021/03/14 01:03:43;;;;;;;2.83;0.55;;;;;;;;;;5029735;28;20069;-80
2021/03/14 01:06:10;;;;;;;3.30;0.50;;;;;;;;;;5021757;28;20409;-82
2021/03/14 01:08:37;;;;;;;2.75;0.50;;;;;;;;;;5019338;28;20042;-84
2021/03/14 01:11:03;;;;;;;1.55;0.40;;;;;;;;;;5022056;28;20176;-86
2021/03/14 01:13:29;;;;;;;1.58;0.68;;;;;;;;;;5011022;28;20042;-80
2021/03/14 01:15:55;;;;;;;2.80;0.50;;;;;;;;;;5029744;28;20044;-79
2021/03/14 01:18:21;;;;;;;1.10;0.30;;;;;;;;;;5021039;28;20046;-80
2021/03/14 01:20:47;;;;;;;1.05;0.25;;;;;;;;;;5021049;28;20045;-79
2021/03/14 01:23:13;;;;;;;2.75;0.50;;;;;;;;;;5020745;28;20041;-79
2021/03/14 01:25:40;;;;;;;0.82;0.30;;;;;;;;;;5017168;28;20076;-81
2021/03/14 01:28:06;;;;;;;1.55;0.40;;;;;;;;;;5022787;28;20049;-79
2021/03/14 01:30:32;;;;;;;0.90;0.30;;;;;;;;;;5029392;28;20056;-80
2021/03/14 01:32:58;;;;;;;1.17;0.20;;;;;;;;;;5025143;28;20037;-79
2021/03/14 01:35:24;;;;;;;1.02;0.40;;;;;;;;;;5026840;28;20124;-79
2021/03/14 01:37:50;;;;;;;1.58;0.40;;;;;;;;;;5028474;28;20386;-80
2021/03/14 01:40:18;;;;;;;2.25;1.40;;;;;;;;;;5017884;28;20046;-80
2021/03/14 01:42:45;;;;;;;0.50;0.30;;;;;;;;;;5026459;28;20104;-80
2021/03/14 01:45:12;;;;;;;0.68;0.40;;;;;;;;;;5019416;28;20038;-81
2021/03/14 01:47:40;;;;;;;0.68;0.30;;;;;;;;;;5014340;28;20761;-79
2021/03/14 01:50:07;;;;;;;0.32;0.20;;;;;;;;;;5020280;28;20050;-79
2021/03/14 01:52:34;;;;;;;0.43;0.22;;;;;;;;;;5022584;28;20041;-79
2021/03/14 01:55:00;;;;;;;0.50;0.20;;;;;;;;;;5011161;28;20068;-79
2021/03/14 01:57:26;;;;;;;1.27;1.00;;;;;;;;;;5024298;28;20049;-80
2021/03/14 01:59:53;;;;;;;0.45;0.45;;;;;;;;;;5017111;28;20034;-80
2021/03/14 02:02:19;;;;;;;1.35;0.25;;;;;;;;;;5023925;28;20494;-79
2021/03/14 02:04:45;;;;;;;0.73;0.28;;;;;;;;;;5018424;28;20056;-80
2021/03/14 02:07:11;;;;;;;0.80;0.30;;;;;;;;;;5027293;28;20041;-79
2021/03/14 02:09:37;;;;;;;1.48;0.40;;;;;;;;;;5024076;28;20040;-80
2021/03/14 02:12:06;;;;;;;0.93;0.30;;;;;;;;;;5019849;28;20711;-79
2021/03/14 02:14:32;;;;;;;0.70;0.30;;;;;;;;;;5018878;28;20125;-80
2021/03/14 02:17:00;;;;;;;1.10;0.28;;;;;;;;;;5023427;28;20042;-79
2021/03/14 02:19:29;;;;;;;2.20;0.47;;;;;;;;;;5011653;28;20046;-79
2021/03/14 02:21:58;;;;;;;0.73;0.30;;;;;;;;;;5018647;28;20044;-80
2021/03/14 02:24:27;;;;;;;2.05;0.40;;;;;;;;;;5019576;28;20038;-80
2021/03/14 02:26:59;;;;;;;1.00;0.25;;;;;;;;;;5023710;28;20523;-79
2021/03/14 02:29:25;;;;;;;0.32;0.20;;;;;;;;;;5031188;28;20494;-79
2021/03/14 02:31:53;;;;;;;0.35;0.28;;;;;;;;;;5014072;28;20504;-80
2021/03/14 02:34:22;;;;;;;1.65;0.43;;;;;;;;;;5026300;28;20057;-80
2021/03/14 02:36:49;;;;;;;1.65;0.40;;;;;;;;;;5016370;28;20050;-79
2021/03/14 02:39:16;;;;;;;0.68;0.30;;;;;;;;;;5021609;28;20045;-79
2021/03/14 02:41:43;;;;;;;2.03;0.52;;;;;;;;;;5027202;28;20048;-79
2021/03/14 02:44:13;;;;;;;0.80;0.30;;;;;;;;;;5025880;28;20052;-80
2021/03/14 02:46:39;;;;;;;0.85;0.20;;;;;;;;;;5018800;28;20046;-80
2021/03/14 02:49:06;;;;;;;1.55;0.25;;;;;;;;;;5023397;28;20041;-79
2021/03/14 02:51:32;;;;;;;1.52;0.40;;;;;;;;;;5024875;28;20196;-79
2021/03/14 02:53:58;;;;;;;0.20;0.20;;;;;;;;;;5019193;28;20061;-80
2021/03/14 02:56:24;;;;;;;0.35;0.30;;;;;;;;;;5024559;28;20033;-80
2021/03/14 02:58:51;;;;;;;0.52;0.30;;;;;;;;;;5021429;28;20049;-80
2021/03/14 03:01:18;;;;;;;0.73;0.38;;;;;;;;;;5012570;28;20096;-79
2021/03/14 03:03:44;;;;;;;0.52;0.30;;;;;;;;;;5017802;28;20044;-79
2021/03/14 03:06:10;;;;;;;1.35;0.55;;;;;;;;;;5017341;28;20105;-79
2021/03/14 03:08:38;;;;;;;0.88;0.45;;;;;;;;;;5019447;28;20042;-79
2021/03/14 03:11:08;;;;;;;2.22;0.68;;;;;;;;;;5016847;28;20438;-79
2021/03/14 03:13:35;;;;;;;0.73;0.32;;;;;;;;;;5009022;28;20038;-78
2021/03/14 03:16:02;;;;;;;1.38;0.40;;;;;;;;;;5021931;28;20049;-78
2021/03/14 03:18:29;;;;;;;0.30;0.30;;;;;;;;;;5003961;28;20062;-80
2021/03/14 03:20:55;;;;;;;0.35;0.30;;;;;;;;;;5030837;28;20052;-80
2021/03/14 03:23:21;;;;;;;0.73;0.32;;;;;;;;;;5021128;28;20072;-80
2021/03/14 03:25:47;;;;;;;0.60;0.40;;;;;;;;;;5026309;28;20418;-80
2021/03/14 03:28:14;;;;;;;0.88;0.47;;;;;;;;;;5022803;28;20038;-80
2021/03/14 03:30:40;;;;;;;0.70;0.47;;;;;;;;;;5027352;28;20029;-78
2021/03/14 03:33:06;;;;;;;0.55;0.30;;;;;;;;;;5027071;28;20042;-78
2021/03/14 03:35:34;;;;;;;0.38;0.30;;;;;;;;;;5021812;28;20038;-78
2021/03/14 03:38:00;;;;;;;2.10;0.40;;;;;;;;;;5025528;28;20064;-79
2021/03/14 03:40:30;;;;;;;0.93;0.30;;;;;;;;;;5031043;28;20046;-79
2021/03/14 03:43:00;;;;;;;0.57;0.30;;;;;;;;;;5020179;28;20050;-80
2021/03/14 03:45:27;;;;;;;0.30;0.20;;;;;;;;;;5012599;28;20064;-79
2021/03/14 03:47:53;;;;;;;0.63;0.30;;;;;;;;;;5026443;28;20367;-79
2021/03/14 03:50:20;;;;;;;0.47;0.20;;;;;;;;;;5025934;28;20053;-80
2021/03/14 03:52:48;;;;;;;0.70;0.50;;;;;;;;;;5025452;28;20050;-79
2021/03/14 03:55:15;;;;;;;0.28;0.20;;;;;;;;;;5023765;28;20068;-79
2021/03/14 03:57:42;;;;;;;1.10;0.40;;;;;;;;;;5025995;28;20030;-79
2021/03/14 04:00:10;;;;;;;0.20;0.20;;;;;;;;;;5022866;28;20096;-80
2021/03/14 04:02:37;;;;;;;1.05;0.40;;;;;;;;;;5024753;28;20041;-79
2021/03/14 04:05:06;;;;;;;0.20;0.20;;;;;;;;;;5027815;28;20045;-78
2021/03/14 04:07:34;;;;;;;2.28;0.50;;;;;;;;;;5025793;28;20038;-79
2021/03/14 04:10:03;;;;;;;0.45;0.20;;;;;;;;;;5019928;28;20049;-79
2021/03/14 04:12:29;;;;;;;0.63;0.63;;;;;;;;;;5032840;28;20038;-80
2021/03/14 04:14:55;;;;;;;0.20;0.20;;;;;;;;;;5029421;28;20053;-79
2021/03/14 04:17:21;;;;;;;0.15;0.15;;;;;;;;;;5021391;28;20046;-79
2021/03/14 04:19:48;;;;;;;0.57;0.13;;;;;;;;;;5031866;28;20044;-79
2021/03/14 04:22:14;;;;;;;0.15;0.10;;;;;;;;;;5031323;28;20528;-79
2021/03/14 04:24:42;;;;;;;0.55;0.10;;;;;;;;;;5021625;28;20033;-79
2021/03/14 04:27:09;;;;;;;0.30;0.15;;;;;;;;;;5020893;28;20068;-81
2021/03/14 04:29:37;;;;;;;0.25;0.20;;;;;;;;;;5023363;28;20041;-80
2021/03/14 04:32:05;;;;;;;0.30;0.20;;;;;;;;;;5026755;28;20525;-80
2021/03/14 04:34:32;;;;;;;0.38;0.30;;;;;;;;;;5026176;28;20045;-79
2021/03/14 04:36:58;;;;;;;0.30;0.30;;;;;;;;;;5023779;28;20038;-80
2021/03/14 04:39:24;;;;;;;0.22;0.22;;;;;;;;;;5021857;28;20068;-79
2021/03/14 04:41:52;;;;;;;0.57;0.20;;;;;;;;;;5020930;28;20049;-79
2021/03/14 04:44:20;;;;;;;0.52;0.40;;;;;;;;;;5024097;28;20545;-79
2021/03/14 04:46:46;;;;;;;0.35;0.35;;;;;;;;;;5020275;28;20433;-79
2021/03/14 04:49:13;;;;;;;0.30;0.30;;;;;;;;;;5020580;28;20049;-80
2021/03/14 04:51:41;;;;;;;0.70;0.43;;;;;;;;;;5024539;28;20042;-80
2021/03/14 04:54:10;;;;;;;0.55;0.40;;;;;;;;;;5028073;28;20041;-80
2021/03/14 04:56:37;;;;;;;1.15;0.50;;;;;;;;;;5018401;28;20133;-80
2021/03/14 04:59:04;;;;;;;0.80;0.40;;;;;;;;;;5017327;28;20517;-80
2021/03/14 05:01:32;;;;;;;1.15;0.35;;;;;;;;;;5019915;28;20519;-80
2021/03/14 05:03:59;;;;;;;1.00;0.47;;;;;;;;;;5020825;28;20038;-79
2021/03/14 05:06:26;;;;;;;0.38;0.38;;;;;;;;;;5027365;28;20049;-79
2021/03/14 05:08:52;;;;;;;0.70;0.40;;;;;;;;;;5021612;28;20077;-81
2021/03/14 05:11:20;;;;;;;1.10;0.52;;;;;;;;;;5021706;28;20049;-80
2021/03/14 05:13:47;;;;;;;1.60;0.20;;;;;;;;;;5011839;28;20045;-80
2021/03/14 05:16:13;;;;;;;0.85;0.30;;;;;;;;;;5024251;28;20045;-81
2021/03/14 05:18:42;;;;;;;1.63;0.45;;;;;;;;;;5023351;28;20050;-81
2021/03/14 05:21:08;;;;;;;0.47;0.40;;;;;;;;;;5020720;28;20042;-80
2021/03/14 05:23:35;;;;;;;1.05;0.45;;;;;;;;;;5022008;28;20041;-80
2021/03/14 05:26:01;;;;;;;0.73;0.45;;;;;;;;;;5020784;28;20038;-81
2021/03/14 05:28:28;;;;;;;0.68;0.30;;;;;;;;;;5025539;28;20049;-79
2021/03/14 05:30:54;;;;;;;0.90;0.55;;;;;;;;;;5022646;28;20045;-80
2021/03/14 05:33:20;;;;;;;1.27;0.50;;;;;;;;;;5027089;28;20061;-79
2021/03/14 05:35:47;;;;;;;0.65;0.32;;;;;;;;;;5023599;28;20058;-79
2021/03/14 05:38:13;;;;;;;2.33;0.40;;;;;;;;;;5020596;28;20046;-80
2021/03/14 05:40:39;;;;;;;0.43;0.30;;;;;;;;;;5021065;28;20431;-81
2021/03/14 05:43:05;;;;;;;0.98;0.20;;;;;;;;;;5000130;28;20050;-80
2021/03/14 05:45:31;;;;;;;0.75;0.28;;;;;;;;;;5023927;28;20041;-80
2021/03/14 05:47:57;;;;;;;0.20;0.20;;;;;;;;;;5020267;28;20084;-80
2021/03/14 05:50:25;;;;;;;0.47;0.30;;;;;;;;;;5025108;28;20038;-79
2021/03/14 05:52:52;;;;;;;1.05;0.30;;;;;;;;;;5023126;28;20040;-80
2021/03/14 05:55:20;;;;;;;0.68;0.30;;;;;;;;;;5023035;28;20402;-80
2021/03/14 05:57:47;;;;;;;1.45;1.08;;;;;;;;;;5026666;28;20049;-79
2021/03/14 06:00:16;;;;;;;0.52;0.40;;;;;;;;;;5023065;28;20060;-79
2021/03/14 06:02:43;;;;;;;0.28;0.25;;;;;;;;;;5022608;28;20041;-80
2021/03/14 06:05:10;;;;;;;0.52;0.20;;;;;;;;;;5025134;28;20045;-80
2021/03/14 06:07:36;;;;;;;1.65;0.32;;;;;;;;;;5035260;28;20038;-80
2021/03/14 06:10:04;;;;;;;1.13;0.65;;;;;;;;;;5024041;28;20092;-80
2021/03/14 06:12:32;;;;;;;3.60;0.95;;;;;;;;;;5021563;28;20052;-80
2021/03/14 06:14:58;;;;;;;2.40;0.60;;;;;;;;;;5019766;28;20545;-80
2021/03/14 06:17:25;;;;;;;0.55;0.47;;;;;;;;;;5033239;28;20505;-81
2021/03/14 06:19:51;;;;;;;0.63;0.50;;;;;;;;;;5022589;28;20045;-81
2021/03/14 06:22:21;;;;;;;1.10;0.55;;;;;;;;;;5018227;28;20046;-81
2021/03/14 06:24:48;;;;;;;1.27;0.80;;;;;;;;;;5017838;28;20033;-81
2021/03/14 06:27:30;;;;;;;2.05;0.70;;;;;;;;;;5023534;28;20557;-81
2021/03/14 06:29:56;;;;;;;1.20;0.40;;;;;;;;;;5019279;28;20038;-81
2021/03/14 06:32:22;;;;;;;2.05;0.52;;;;;;;;;;5023572;28;20359;-80
2021/03/14 06:34:48;;;;;;;1.08;0.70;;;;;;;;;;5020158;28;20060;-80
2021/03/14 06:37:15;;;;;;;2.38;0.70;;;;;;;;;;5018485;28;20128;-80
2021/03/14 06:39:44;;;;;;;1.20;0.50;;;;;;;;;;5021561;28;20120;-80
2021/03/14 06:42:10;;;;;;;0.38;0.38;;;;;;;;;;5028714;28;20042;-81
2021/03/14 06:44:39;;;;;;;0.65;0.43;;;;;;;;;;5016716;28;20049;-80
2021/03/14 06:47:05;;;;;;;0.38;0.38;;;;;;;;;;5017408;28;20046;-79
2021/03/14 06:49:36;;;;;;;1.77;0.70;;;;;;;;;;5024542;28;20041;-80
2021/03/14 06:52:03;;;;;;;0.82;0.50;;;;;;;;;;5027232;28;20042;-80
2021/03/14 06:54:31;;;;;;;2.17;0.98;;;;;;;;;;5031379;28;20405;-80
2021/03/14 06:57:05;;;;;;;2.58;1.13;;;;;;;;;;5024079;28;20048;-81
2021/03/14 06:59:32;;;;;;;3.25;1.60;;;;;;;;;;5025406;28;20501;-80
2021/03/14 07:02:01;;;;;;;1.65;1.02;;;;;;;;;;5014053;28;20038;-80
2021/03/14 07:04:34;;;;;;;1.83;0.85;;;;;;;;;;5017443;28;20512;-81
2021/03/14 07:07:00;;;;;;;1.55;0.70;;;;;;;;;;5019221;28;20046;-80
2021/03/14 07:09:26;;;;;;;2.65;1.23;;;;;;;;;;5017753;28;20053;-81
2021/03/14 07:11:52;;;;;;;1.70;0.88;;;;;;;;;;5016782;28;20041;-80
2021/03/14 07:14:20;;;;;;;2.53;1.10;;;;;;;;;;5016653;28;20379;-80
2021/03/14 07:16:47;;;;;;;1.33;0.80;;;;;;;;;;5019594;28;20038;-80
2021/03/14 07:19:16;;;;;;;3.47;1.38;;;;;;;;;;5017067;28;20049;-79
2021/03/14 07:21:42;;;;;;;4.40;1.48;;;;;;;;;;5017281;28;20049;-80
2021/03/14 07:24:12;;;;;;;1.10;0.77;;;;;;;;;;5017257;28;20367;-80
2021/03/14 07:26:44;;;;;;;3.03;1.13;;;;;;;;;;5023604;28;20040;-80
2021/03/14 07:29:10;;;;;;;2.70;0.82;;;;;;;;;;5020058;28;20042;-80
2021/03/14 07:31:36;;;;;;;1.70;0.90;;;;;;;;;;5022780;28;20041;-80
2021/03/14 07:34:04;;;;;;;8.48;1.23;;;;;;;;;;5021146;28;20038;-80
2021/03/14 07:36:31;;;;;;;1.67;1.08;;;;;;;;;;5026971;28;20105;-80
2021/03/14 07:38:57;;;;;;;3.08;1.25;;;;;;;;;;5023116;28;20581;-80
2021/03/14 07:41:24;;;;;;;2.28;1.02;;;;;;;;;;5023317;28;20061;-80
2021/03/14 07:43:50;;;;;;;1.90;0.80;;;;;;;;;;5029285;28;20052;-80
2021/03/14 07:46:17;;;;;;;0.68;0.52;;;;;;;;;;5025511;28;20048;-80
2021/03/14 07:48:43;;;;;;;2.35;0.82;;;;;;;;;;5025458;28;20045;-79
2021/03/14 07:51:11;;;;;;;1.58;0.90;;;;;;;;;;5019668;28;20044;-79
2021/03/14 07:53:38;;;;;;;2.42;1.15;;;;;;;;;;5021803;28;20124;-81
2021/03/14 07:56:05;;;;;;;2.25;1.20;;;;;;;;;;5025969;28;20045;-81
2021/03/14 07:58:33;;;;;;;2.17;1.02;;;;;;;;;;5024783;28;20037;-81
2021/03/14 08:01:21;;;;;;;3.83;1.60;;;;;;;;;;5022940;28;20132;-81
2021/03/14 08:03:47;;;;;;;3.30;1.88;;;;;;;;;;5020356;28;20073;-79
2021/03/14 08:06:13;;;;;;;3.95;1.40;;;;;;;;;;5023468;28;20054;-80
2021/03/14 08:08:47;;;;;;;1.95;1.00;;;;;;;;;;5024686;28;20038;-80
2021/03/14 08:11:27;;;;;;;2.47;1.00;;;;;;;;;;5023351;28;20042;-78
2021/03/14 08:13:53;;;;;;;1.70;0.80;;;;;;;;;;5015824;28;20125;-79
2021/03/14 08:16:19;;;;;;;1.98;0.82;;;;;;;;;;5023095;28;20049;-81
2021/03/14 08:18:47;;;;;;;1.60;1.00;;;;;;;;;;5019347;28;20042;-79
2021/03/14 08:21:41;;;;;;;1.88;0.90;;;;;;;;;;5018752;28;20046;-83
2021/03/14 08:24:08;;;;;;;1.67;0.70;;;;;;;;;;5017901;28;20080;-79
2021/03/14 08:26:36;;;;;;;1.50;0.80;;;;;;;;;;5023061;28;20037;-81
2021/03/14 08:29:08;;;;;;;1.83;1.00;;;;;;;;;;5020442;28;20089;-80
2021/03/14 08:31:39;;;;;;;3.25;1.27;;;;;;;;;;5026773;28;20037;-81
2021/03/14 08:34:06;;;;;;;1.45;0.82;;;;;;;;;;5015781;28;20140;-81
2021/03/14 08:36:34;;;;;;;2.00;0.90;;;;;;;;;;5024393;28;20048;-78
2021/03/14 08:39:00;;;;;;;1.88;0.80;;;;;;;;;;5018478;28;20057;-79
2021/03/14 08:41:29;;;;;;;3.33;1.00;;;;;;;;;;5022098;28;20050;-80
2021/03/14 08:43:58;;;;;;;3.45;1.10;;;;;;;;;;5021376;28;20046;-79
2021/03/14 08:47:04;;;;;;;3.03;0.93;;;;;;;;;;5026026;28;20039;-80
2021/03/14 08:49:30;;;;;;;4.63;1.05;;;;;;;;;;5028157;28;20388;-78
2021/03/14 08:51:57;;;;;;;3.35;1.35;;;;;;;;;;5018922;28;20107;-79
2021/03/14 08:54:27;;;;;;;2.63;0.90;;;;;;;;;;5020261;28;20042;-80
2021/03/14 08:57:02;;;;;;;3.67;1.00;;;;;;;;;;5019073;28;20048;-80
2021/03/14 08:59:28;;;;;;;2.35;0.95;;;;;;;;;;5018895;28;20049;-79
2021/03/14 09:01:56;;;;;;;2.22;1.00;;;;;;;;;;5019807;28;20153;-81
2021/03/14 09:04:23;;;;;;;4.25;1.30;;;;;;;;;;5019703;28;20042;-79
2021/03/14 09:06:50;;;;;;;1.88;1.40;;;;;;;;;;5021739;28;20038;-80
2021/03/14 09:09:18;;;;;;;2.58;1.52;;;;;;;;;;5023453;28;20498;-81
2021/03/14 09:11:46;;;;;;;1.70;0.82;;;;;;;;;;5022264;28;20042;-81
2021/03/14 09:14:33;;;;;;;2.03;0.90;;;;;;;;;;5022800;28;20046;-80
2021/03/14 09:17:02;;;;;;;1.58;0.88;;;;;;;;;;5021445;28;20037;-81
2021/03/14 09:19:33;;;;;;;1.58;0.88;;;;;;;;;;5026513;28;20041;-82
2021/03/14 09:22:01;;;;;;;2.67;1.20;;;;;;;;;;5020068;28;20129;-82
2021/03/14 09:24:33;;;;;;;3.47;0.90;;;;;;;;;;5003044;28;20046;-80
2021/03/14 09:27:02;;;;;;;5.18;1.10;;;;;;;;;;5022530;28;20054;-82
2021/03/14 09:29:50;;;;;;;2.67;0.75;;;;;;;;;;5026004;28;20068;-80
2021/03/14 09:32:28;;;;;;;3.50;0.90;;;;;;;;;;5017598;28;20050;-80
2021/03/14 09:35:12;;;;;;;4.28;1.20;;;;;;;;;;5018903;28;20045;-82
2021/03/14 09:37:39;;;;;;;1.70;0.93;;;;;;;;;;5020469;28;20053;-82
2021/03/14 09:40:17;;;;;;;1.98;1.00;;;;;;;;;;4997820;28;20053;-80
2021/03/14 09:42:45;;;;;;;3.58;1.10;;;;;;;;;;5026708;28;20041;-81
2021/03/14 09:45:14;;;;;;;1.92;0.80;;;;;;;;;;5023889;28;20054;-81
2021/03/14 09:48:01;;;;;;;1.77;0.90;;;;;;;;;;5024454;28;20129;-81
2021/03/14 09:50:27;;;;;;;;;;;;;;;;;;5023332;28;20046;-80
2021/03/14 09:52:53;;;;;;;2.50;1.10;;;;;;;;;;5017575;28;20390;-80
2021/03/14 09:55:23;;;;;;;1.83;1.17;;;;;;;;;;5021762;28;20406;-80
2021/03/14 09:57:50;;;;;;;4.43;1.15;;;;;;;;;;5014327;28;20069;-80
2021/03/14 10:00:22;;;;;;;2.38;1.05;;;;;;;;;;5022724;28;20486;-81
2021/03/14 10:02:48;;;;;;;3.80;1.20;;;;;;;;;;5015394;28;20393;-80
2021/03/14 10:05:14;;;;;;;1.55;0.73;;;;;;;;;;5020412;28;20636;-80
2021/03/14 10:07:40;;;;;;;2.92;1.10;;;;;;;;;;5017645;28;20349;-81
2021/03/14 10:10:09;;;;;;;4.18;0.90;;;;;;;;;;5023851;28;20057;-81
2021/03/14 10:12:35;;;;;;;4.43;1.10;;;;;;;;;;5020557;28;20053;-80
2021/03/14 10:15:02;;;;;;;4.55;1.10;;;;;;;;;;5023895;28;20053;-81
2021/03/14 10:17:29;;;;;;;4.20;0.80;;;;;;;;;;5021926;28;20057;-81
2021/03/14 10:19:55;;;;;;;5.32;1.13;;;;;;;;;;5026262;28;20042;-81
2021/03/14 10:22:29;;;;;;;5.88;1.20;;;;;;;;;;5022661;28;20049;-80
2021/03/14 10:24:55;;;;;;;2.80;0.90;;;;;;;;;;5018979;28;20053;-80
2021/03/14 10:27:21;;;;;;;5.03;1.15;;;;;;;;;;5022460;28;20038;-80
2021/03/14 10:29:55;;;;;;;4.38;1.40;;;;;;;;;;5013063;28;20033;-81
2021/03/14 10:32:22;;;;;;;4.35;0.90;;;;;;;;;;5021372;28;20045;-81
2021/03/14 10:34:53;;;;;;;2.28;0.80;;;;;;;;;;5016613;28;20124;-84
2021/03/14 10:37:30;;;;;;;2.35;0.60;;;;;;;;;;5001970;28;20037;-81
2021/03/14 10:40:01;;;;;;;4.10;1.20;;;;;;;;;;5015091;28;20038;-80
2021/03/14 10:42:29;;;;;;;2.75;0.70;;;;;;;;;;5021312;28;20189;-81
2021/03/14 10:45:00;;;;;;;1.63;0.75;;;;;;;;;;5021228;28;20041;-80
2021/03/14 10:47:28;;;;;;;2.50;0.88;;;;;;;;;;5026039;28;20049;-81
2021/03/14 10:50:07;;;;;;;2.38;0.50;;;;;;;;;;5018883;28;20045;-82
2021/03/14 10:52:33;;;;;;;0.95;0.60;;;;;;;;;;5017656;28;20050;-82
2021/03/14 10:54:59;;;;;;;1.33;0.60;;;;;;;;;;5023643;28;20187;-82
2021/03/14 10:57:25;;;;;;;1.75;0.55;;;;;;;;;;5024470;28;20042;-81
2021/03/14 10:59:51;;;;;;;4.07;0.93;;;;;;;;;;5026101;28;20042;-82
2021/03/14 11:02:20;;;;;;;1.55;0.60;;;;;;;;;;5024957;28;20130;-81
2021/03/14 11:04:53;;;;;;;1.58;0.63;;;;;;;;;;5023550;28;20044;-82
2021/03/14 11:07:24;;;;;;;2.85;0.93;;;;;;;;;;5024127;28;20050;-83
2021/03/14 11:09:50;;;;;;;3.10;0.80;;;;;;;;;;5030018;28;20057;-81
2021/03/14 11:12:30;;;;;;;4.13;0.90;;;;;;;;;;5028470;28;20056;-83
2021/03/14 11:14:56;;;;;;;3.30;0.95;;;;;;;;;;5023498;28;20046;-81
2021/03/14 11:17:23;;;;;;;6.20;3.17;;;;;;;;;;5026774;28;20061;-82
2021/03/14 11:19:51;;;;;;;2.22;0.70;;;;;;;;;;5017197;28;20038;-85
2021/03/14 11:22:19;;;;;;;2.75;0.90;;;;;;;;;;5025146;28;20050;-82
2021/03/14 11:24:47;;;;;;;2.25;0.95;;;;;;;;;;5016406;28;20577;-81
2021/03/14 11:27:14;;;;;;;1.95;0.75;;;;;;;;;;5020457;28;20098;-82
2021/03/14 11:29:41;;;;;;;3.13;0.68;;;;;;;;;;5024644;28;20426;-82
2021/03/14 11:32:11;;;;;;;1.25;0.55;;;;;;;;;;5027155;28;20042;-81
2021/03/14 11:34:37;;;;;;;1.80;0.73;;;;;;;;;;5016855;28;20100;-82
2021/03/14 11:37:03;;;;;;;3.13;0.80;;;;;;;;;;4988743;28;20046;-82
2021/03/14 11:39:29;;;;;;;6.22;0.80;;;;;;;;;;5002506;28;20045;-82
2021/03/14 11:41:56;;;;;;;4.32;0.88;;;;;;;;;;5034905;28;20037;-82
2021/03/14 11:44:22;;;;;;;2.05;0.68;;;;;;;;;;5005283;28;20483;-81
2021/03/14 11:46:48;;;;;;;2.80;0.88;;;;;;;;;;5005210;28;20053;-81
2021/03/14 11:49:15;;;;;;;1.98;0.90;;;;;;;;;;5007614;28;20163;-81
2021/03/14 11:51:41;;;;;;;2.75;1.10;;;;;;;;;;5010662;28;20042;-81
2021/03/14 11:54:10;;;;;;;2.60;0.80;;;;;;;;;;5023611;28;20050;-81
2021/03/14 11:56:36;;;;;;;2.72;0.60;;;;;;;;;;5030354;28;20079;-82
2021/03/14 11:59:03;;;;;;;3.53;0.68;;;;;;;;;;5019869;28;20041;-80
2021/03/14 12:01:29;;;;;;;1.80;0.85;;;;;;;;;;5023716;28;20067;-80
2021/03/14 12:03:55;;;;;;;3.58;1.08;;;;;;;;;;5022338;28;20130;-81
2021/03/14 12:06:21;;;;;;;1.77;0.90;;;;;;;;;;5027722;28;20045;-80
2021/03/14 12:08:47;;;;;;;1.88;0.80;;;;;;;;;;5024345;28;20050;-80
2021/03/14 12:11:14;;;;;;;3.80;0.90;;;;;;;;;;5001300;28;20053;-81
2021/03/14 12:13:40;;;;;;;2.80;1.10;;;;;;;;;;5022414;28;20453;-81
2021/03/14 12:16:08;;;;;;;2.67;1.10;;;;;;;;;;5019323;28;20077;-81
2021/03/14 12:18:34;;;;;;;4.47;0.77;;;;;;;;;;5020340;28;20045;-80
2021/03/14 12:21:00;;;;;;;3.10;0.90;;;;;;;;;;5020457;28;20054;-80
2021/03/14 12:23:26;;;;;;;3.35;0.70;;;;;;;;;;5020963;28;20049;-80
2021/03/14 12:25:53;;;;;;;3.15;1.00;;;;;;;;;;5023586;28;20038;-80
2021/03/14 12:28:19;;;;;;;2.05;0.80;;;;;;;;;;5022773;28;20050;-80
2021/03/14 12:30:45;;;;;;;5.07;1.20;;;;;;;;;;5000763;28;20034;-80
2021/03/14 12:33:12;;;;;;;7.90;1.70;;;;;;;;;;5017872;28;20049;-80
2021/03/14 12:35:38;;;;;;;4.32;0.85;;;;;;;;;;5013667;28;20042;-79
2021/03/14 12:38:04;;;;;;;1.63;0.60;;;;;;;;;;5020904;28;20125;-80
2021/03/14 12:40:31;;;;;;;3.15;1.10;;;;;;;;;;5021355;28;20037;-80
2021/03/14 12:42:57;;;;;;;2.05;0.85;;;;;;;;;;5020128;28;20405;-81
2021/03/14 12:45:23;;;;;;;3.42;0.77;;;;;;;;;;5023739;28;20390;-81
2021/03/14 12:47:49;;;;;;;3.78;0.95;;;;;;;;;;5021386;28;20034;-80
2021/03/14 12:50:16;;;;;;;4.07;1.40;;;;;;;;;;5021292;28;20114;-80
2021/03/14 12:52:45;;;;;;;4.43;1.23;;;;;;;;;;5021645;28;20068;-80
2021/03/14 12:55:12;;;;;;;3.47;1.20;;;;;;;;;;5024756;28;20076;-80
2021/03/14 12:57:38;;;;;;;4.20;2.03;;;;;;;;;;5026104;28;20488;-80
2021/03/14 13:00:06;;;;;;;6.60;1.80;;;;;;;;;;5030987;28;20493;-80
2021/03/14 13:02:32;;;;;;;3.30;1.38;;;;;;;;;;5025304;28;20076;-80
2021/03/14 13:04:59;;;;;;;3.10;0.82;;;;;;;;;;5006290;28;20083;-79
2021/03/14 13:07:26;;;;;;;4.55;1.35;;;;;;;;;;5021668;28;20042;-79
2021/03/14 13:09:52;;;;;;;5.05;2.08;;;;;;;;;;5021035;28;20052;-80
2021/03/14 13:12:18;;;;;;;4.30;1.55;;;;;;;;;;4986299;28;20529;-80
2021/03/14 13:14:44;;;;;;;4.13;2.03;;;;;;;;;;5021085;28;20049;-80
2021/03/14 13:17:10;;;;;;;2.80;1.30;;;;;;;;;;5021058;28;20099;-80
2021/03/14 13:19:36;;;;;;;2.75;1.02;;;;;;;;;;5021861;28;20099;-80
2021/03/14 13:22:03;;;;;;;4.40;2.20;;;;;;;;;;5020657;28;20486;-81
2021/03/14 13:24:29;;;;;;;10.73;3.85;;;;;;;;;;5025427;28;20042;-81
2021/03/14 13:26:56;;;;;;;6.00;2.63;;;;;;;;;;5022747;28;20037;-81
2021/03/14 13:29:22;;;;;;;4.60;2.78;;;;;;;;;;5023258;28;20093;-83
2021/03/14 13:31:48;;;;;;;4.35;1.60;;;;;;;;;;5024275;28;20050;-82
2021/03/14 13:34:14;;;;;;;3.25;1.10;;;;;;;;;;5020924;28;20136;-81
2021/03/14 13:36:40;;;;;;;2.95;1.10;;;;;;;;;;5021771;28;20042;-82
2021/03/14 13:39:06;;;;;;;5.38;1.35;;;;;;;;;;5022383;28;20046;-80
2021/03/14 13:41:33;;;;;;;1.88;0.68;;;;;;;;;;5022658;28;20421;-80
2021/03/14 13:43:59;;;;;;;1.25;0.65;;;;;;;;;;5020963;28;20906;-80
2021/03/14 13:46:25;;;;;;;2.60;0.98;;;;;;;;;;5019108;28;20045;-80
2021/03/14 13:48:51;;;;;;;4.43;0.70;;;;;;;;;;5019492;28;20034;-79
2021/03/14 13:51:17;;;;;;;1.70;0.60;;;;;;;;;;5020963;28;20088;-82
2021/03/14 13:53:44;;;;;;;1.52;0.77;;;;;;;;;;5022341;28;20397;-79
2021/03/14 13:56:10;;;;;;;2.47;0.70;;;;;;;;;;5022966;28;20053;-81
2021/03/14 13:58:37;;;;;;;1.75;0.50;;;;;;;;;;5021197;28;20045;-80
2021/03/14 14:01:06;;;;;;;3.08;0.85;;;;;;;;;;5025283;28;20049;-81
2021/03/14 14:03:34;;;;;;;1.77;0.50;;;;;;;;;;5035674;28;20477;-83
2021/03/14 14:06:00;;;;;;;1.60;0.47;;;;;;;;;;5021109;28;20149;-80
2021/03/14 14:08:26;;;;;;;2.45;0.70;;;;;;;;;;5020755;28;20078;-81
2021/03/14 14:10:52;;;;;;;1.73;0.68;;;;;;;;;;5030395;28;20107;-81
2021/03/14 14:13:18;;;;;;;0.90;0.50;;;;;;;;;;5006660;28;20045;-80
2021/03/14 14:15:45;;;;;;;2.53;0.65;;;;;;;;;;5019134;28;20047;-80
2021/03/14 14:18:11;;;;;;;1.52;0.70;;;;;;;;;;5022212;28;20048;-79
2021/03/14 14:20:40;;;;;;;1.85;0.40;;;;;;;;;;5029275;28;20133;-81
2021/03/14 14:23:06;;;;;;;1.80;0.68;;;;;;;;;;5021295;28;20045;-79
2021/03/14 14:25:32;;;;;;;3.45;0.80;;;;;;;;;;5035019;28;20045;-79
2021/03/14 14:28:00;;;;;;;2.72;0.60;;;;;;;;;;5017051;28;20038;-78
2021/03/14 14:30:27;;;;;;;2.45;0.60;;;;;;;;;;5016464;28;20076;-79
2021/03/14 14:32:54;;;;;;;2.15;0.60;;;;;;;;;;5015683;28;20497;-79
2021/03/14 14:35:20;;;;;;;2.85;0.50;;;;;;;;;;5016565;28;20038;-79
2021/03/14 14:37:46;;;;;;;2.00;0.80;;;;;;;;;;5017798;28;20090;-79
2021/03/14 14:40:12;;;;;;;1.48;0.60;;;;;;;;;;5018530;28;20574;-80
2021/03/14 14:42:38;;;;;;;1.80;0.63;;;;;;;;;;5018684;28;20045;-80
2021/03/14 14:45:06;;;;;;;2.15;0.60;;;;;;;;;;5014463;28;20116;-80